Farwell, Nebraska
Current Conditions -  °F | °C
As of 7:53 AM on Saturday 20 Dec 2014 (Local Time) from KGRI Reporting Station
Moderate Fog Moderate Fog  
Wind Chill: 24°   Ceiling: 200
Heat Index: 29°   Visibility: 0.25mi
Dew Point: 28°   Wind: 5mph
Humidity: 96%   Direction: 160°SSE
Pressure: 30.06"   Gusts: NA
Location:  41.22°N, 98.63°W
Report Text: KGRI 201353Z 16004KT 1/4SM R35/1200V1400FT FZFG VV002 M02/M02 A3006 RMK AO2 SLP200 I1000 T10171022
Loading
Personal Weather Stations






























Interactive Weather Map New forecast layout! Learn more

10-Day Weather Forecast

Advertisements
Track Severe Weather on mobile